createdAt,value
2023-07-18T00:02:00.211Z,78.86
2023-07-18T00:05:03.178Z,78.86
2023-07-18T00:08:06.381Z,79.24
2023-07-18T00:11:09.501Z,79.95
2023-07-18T00:14:12.433Z,79.98
2023-07-18T00:17:16.645Z,79.43
2023-07-18T00:20:20.531Z,79.41
2023-07-18T00:23:23.590Z,79.68
2023-07-18T00:26:26.503Z,80.88
2023-07-18T00:29:29.263Z,79.85
2023-07-18T00:32:32.412Z,79.53
2023-07-18T00:35:36.170Z,79.72
2023-07-18T00:38:41.506Z,81.25
2023-07-18T00:41:44.559Z,80.16
2023-07-18T00:44:50.527Z,80.85
2023-07-18T00:47:53.891Z,81.55
2023-07-18T00:50:56.835Z,82.17
2023-07-18T00:54:00.461Z,82.61
2023-07-18T00:57:03.702Z,83.27
2023-07-18T01:00:12.399Z,84.77
2023-07-18T01:03:17.534Z,84.78
2023-07-18T01:06:20.370Z,83.19
2023-07-18T01:09:23.601Z,82.73
2023-07-18T01:12:26.432Z,82.95
2023-07-18T01:15:34.417Z,84.19
2023-07-18T01:18:38.906Z,88.84
2023-07-18T01:21:43.632Z,93.55
2023-07-18T01:24:46.811Z,95.60
2023-07-18T01:27:51.463Z,98.09
2023-07-18T01:30:56.980Z,100.00
2023-07-18T01:33:59.824Z,100.00
2023-07-18T01:37:04.149Z,100.00
2023-07-18T01:40:14.276Z,100.00
2023-07-18T01:43:17.185Z,100.00
2023-07-18T01:46:20.258Z,100.00
2023-07-18T01:49:24.268Z,100.00
2023-07-18T01:52:28.789Z,100.00
2023-07-18T01:55:31.874Z,100.00
2023-07-18T01:58:36.635Z,100.00
2023-07-18T02:01:39.601Z,100.00
2023-07-18T02:04:42.842Z,100.00
2023-07-18T02:07:46.481Z,100.00
2023-07-18T02:10:49.834Z,100.00
2023-07-18T02:13:52.700Z,100.00
2023-07-18T02:16:55.793Z,100.00
2023-07-18T02:19:59.123Z,100.00
2023-07-18T02:23:02.303Z,100.00
2023-07-18T02:26:05.971Z,100.00
2023-07-18T02:29:08.977Z,100.00
2023-07-18T02:32:12.151Z,100.00
2023-07-18T02:35:20.264Z,100.00
2023-07-18T02:38:24.075Z,100.00
2023-07-18T02:41:27.783Z,100.00
2023-07-18T02:44:33.752Z,100.00
2023-07-18T02:47:36.900Z,100.00
2023-07-18T02:50:39.831Z,100.00
2023-07-18T02:53:42.954Z,100.00
2023-07-18T02:56:46.172Z,100.00
2023-07-18T02:59:49.137Z,100.00
2023-07-18T03:02:53.285Z,100.00
2023-07-18T03:05:56.672Z,100.00
2023-07-18T03:08:59.534Z,100.00
2023-07-18T03:12:05.462Z,100.00
2023-07-18T03:15:12.171Z,100.00
2023-07-18T03:18:15.486Z,100.00
2023-07-18T03:21:18.981Z,100.00
2023-07-18T03:24:22.256Z,100.00
2023-07-18T03:27:25.363Z,100.00
2023-07-18T03:30:28.222Z,99.38
2023-07-18T03:33:31.368Z,98.98
2023-07-18T03:36:36.560Z,97.64
2023-07-18T03:39:40.734Z,97.27
2023-07-18T03:42:44.727Z,97.21
2023-07-18T03:45:47.721Z,97.00
2023-07-18T03:48:52.894Z,96.71
2023-07-18T03:51:56.368Z,96.14
2023-07-18T03:54:59.420Z,95.51
2023-07-18T03:58:03.096Z,95.28
2023-07-18T04:01:12.124Z,94.16
2023-07-18T04:04:15.358Z,92.54
2023-07-18T04:07:19.363Z,92.36
2023-07-18T04:10:22.765Z,88.00
2023-07-18T04:13:28.831Z,79.58
2023-07-18T04:16:37.410Z,73.81
2023-07-18T04:19:42.553Z,67.19
2023-07-18T04:22:47.588Z,62.83
2023-07-18T04:25:59.935Z,59.43
2023-07-18T04:29:06.510Z,60.84
2023-07-18T04:32:12.782Z,60.18
2023-07-18T04:35:15.832Z,61.99
2023-07-18T04:38:22.667Z,65.96
2023-07-18T04:41:25.527Z,68.08
2023-07-18T04:44:29.746Z,71.49
2023-07-18T04:47:33.773Z,72.07
2023-07-18T04:50:38.318Z,74.97
2023-07-18T04:53:41.535Z,72.59
2023-07-18T04:56:46.220Z,72.34
2023-07-18T04:59:49.994Z,72.01
2023-07-18T05:02:53.019Z,70.33
2023-07-18T05:05:58.301Z,70.15
2023-07-18T05:09:01.947Z,70.75
2023-07-18T05:12:05.549Z,69.78
2023-07-18T05:15:09.456Z,71.04
2023-07-18T05:18:12.655Z,72.08
2023-07-18T05:21:16.031Z,71.08
2023-07-18T05:24:20.459Z,69.61
2023-07-18T05:27:23.644Z,69.86
2023-07-18T05:30:29.627Z,69.28
2023-07-18T05:33:34.173Z,68.40
2023-07-18T05:36:38.404Z,69.20
2023-07-18T05:39:43.808Z,67.97
2023-07-18T05:42:53.366Z,66.89
2023-07-18T05:45:56.950Z,67.35
2023-07-18T05:49:02.981Z,68.99
2023-07-18T05:52:06.561Z,67.13
2023-07-18T05:55:11.432Z,66.75
2023-07-18T05:58:15.001Z,66.63
2023-07-18T06:01:18.716Z,67.64
2023-07-18T06:04:22.225Z,66.33
2023-07-18T06:07:26.888Z,66.38
2023-07-18T06:10:30.317Z,65.99
2023-07-18T06:13:33.212Z,62.54
2023-07-18T06:16:36.204Z,64.06
2023-07-18T06:19:40.896Z,63.61
2023-07-18T06:22:46.376Z,65.04
2023-07-18T06:25:49.264Z,63.71
2023-07-18T06:28:55.148Z,63.01
2023-07-18T06:31:58.373Z,59.78
2023-07-18T06:35:16.679Z,57.84
2023-07-18T06:38:26.870Z,56.51
2023-07-18T06:41:30.075Z,55.22
2023-07-18T06:44:34.283Z,54.20
2023-07-18T06:47:38.203Z,53.49
2023-07-18T06:50:48.320Z,50.70
2023-07-18T06:53:53.688Z,53.10
2023-07-18T06:56:57.058Z,51.79
2023-07-18T07:00:01.415Z,51.93
2023-07-18T07:03:05.672Z,52.10
2023-07-18T07:06:12.979Z,49.33
2023-07-18T07:09:16.004Z,50.35
2023-07-18T07:12:34.355Z,50.24
2023-07-18T07:15:39.325Z,50.27
2023-07-18T07:18:42.493Z,49.86
2023-07-18T07:21:45.970Z,49.93
2023-07-18T07:24:49.229Z,49.73
2023-07-18T07:27:52.313Z,48.99
2023-07-18T07:30:55.524Z,48.24
2023-07-18T07:33:58.978Z,49.13
2023-07-18T07:37:02.258Z,47.54
2023-07-18T07:40:09.079Z,46.62
2023-07-18T07:43:14.235Z,48.19
2023-07-18T07:46:18.047Z,47.42
2023-07-18T07:49:22.780Z,47.33
2023-07-18T07:52:25.758Z,46.77
2023-07-18T07:55:29.593Z,47.61
2023-07-18T07:58:32.888Z,46.90
2023-07-18T08:01:35.801Z,46.86
2023-07-18T08:04:39.767Z,46.77
2023-07-18T08:07:44.690Z,43.89
2023-07-18T08:10:47.706Z,45.50
2023-07-18T08:13:55.372Z,43.58
2023-07-18T08:16:58.730Z,44.53
2023-07-18T08:20:02.359Z,45.85
2023-07-18T08:23:09.545Z,43.75
2023-07-18T08:26:12.756Z,42.82
2023-07-18T08:29:16.050Z,43.51
2023-07-18T08:32:19.064Z,43.28
2023-07-18T08:35:22.598Z,42.69
2023-07-18T08:38:25.592Z,41.70
2023-07-18T08:41:29.064Z,42.58
2023-07-18T08:44:33.082Z,42.93
2023-07-18T08:47:36.175Z,40.20
2023-07-18T08:50:41.512Z,41.20
2023-07-18T08:53:44.658Z,41.94
2023-07-18T08:56:47.827Z,41.85
2023-07-18T08:59:50.993Z,41.01
2023-07-18T09:02:54.072Z,41.04
2023-07-18T09:05:59.376Z,41.21
2023-07-18T09:09:02.550Z,40.61
2023-07-18T09:12:06.561Z,39.71
2023-07-18T09:15:20.314Z,37.67
2023-07-18T09:18:23.409Z,39.74
2023-07-18T09:21:26.659Z,40.17
2023-07-18T09:24:34.473Z,38.89
2023-07-18T09:27:38.081Z,39.36
2023-07-18T09:30:41.411Z,39.65
2023-07-18T09:33:45.366Z,39.23
2023-07-18T09:37:01.382Z,38.29
2023-07-18T09:40:04.651Z,38.17
2023-07-18T09:43:08.357Z,38.29
2023-07-18T09:46:15.695Z,36.96
2023-07-18T09:49:19.995Z,38.97
2023-07-18T09:52:28.095Z,38.29
2023-07-18T09:55:32.387Z,38.91
2023-07-18T09:58:39.609Z,37.71
2023-07-18T10:01:44.004Z,38.79
2023-07-18T10:04:47.864Z,39.22
2023-07-18T10:07:51.440Z,40.44
2023-07-18T10:11:09.526Z,36.72
2023-07-18T10:14:14.149Z,36.39
2023-07-18T10:17:43.814Z,37.20
2023-07-18T10:20:59.797Z,37.18
2023-07-18T10:24:29.929Z,38.47
2023-07-18T10:27:43.809Z,39.27
2023-07-18T10:30:47.990Z,39.07
2023-07-18T10:34:26.425Z,35.90
2023-07-18T10:37:32.290Z,36.71
2023-07-18T10:40:40.953Z,35.48
2023-07-18T10:43:49.426Z,34.17
2023-07-18T10:46:52.907Z,36.56
2023-07-18T10:49:56.875Z,35.51
2023-07-18T10:53:01.084Z,36.50
2023-07-18T10:56:10.149Z,35.02
2023-07-18T10:59:16.474Z,34.93
2023-07-18T11:02:23.305Z,35.29
2023-07-18T11:05:26.708Z,35.17
2023-07-18T11:08:31.635Z,33.89
2023-07-18T11:11:39.210Z,33.69
2023-07-18T11:14:42.812Z,34.19
2023-07-18T11:17:46.382Z,31.76
2023-07-18T11:20:49.506Z,31.28
2023-07-18T11:23:52.500Z,32.73
2023-07-18T11:27:19.604Z,28.46
2023-07-18T11:30:23.490Z,31.94
2023-07-18T11:33:30.536Z,31.39
2023-07-18T11:36:35.067Z,31.06
2023-07-18T11:39:38.029Z,31.58
2023-07-18T11:42:52.088Z,29.98
2023-07-18T11:45:58.302Z,30.91
2023-07-18T11:49:03.040Z,30.19
2023-07-18T11:52:07.771Z,31.18
2023-07-18T11:55:10.986Z,29.78
2023-07-18T11:58:13.951Z,30.19
2023-07-18T12:01:18.026Z,31.00
2023-07-18T12:04:21.335Z,31.13
2023-07-18T12:07:25.249Z,30.95
2023-07-18T12:10:30.372Z,30.04
2023-07-18T12:13:34.024Z,29.75
2023-07-18T12:16:39.581Z,30.11
2023-07-18T12:19:42.903Z,30.31
2023-07-18T12:22:46.692Z,30.69
2023-07-18T12:25:49.628Z,30.48
2023-07-18T12:28:56.560Z,30.28
2023-07-18T12:31:59.955Z,30.44
2023-07-18T12:35:07.954Z,30.24
2023-07-18T12:38:12.762Z,30.00
2023-07-18T12:41:16.151Z,30.68
2023-07-18T12:44:24.170Z,28.41
2023-07-18T12:47:30.370Z,29.11
2023-07-18T12:50:34.195Z,29.48
2023-07-18T12:53:37.173Z,28.92
2023-07-18T12:56:41.262Z,29.76
2023-07-18T12:59:48.449Z,28.91
2023-07-18T13:02:52.787Z,28.65
2023-07-18T13:05:56.691Z,29.05
2023-07-18T13:09:01.215Z,28.29
2023-07-18T13:12:07.783Z,28.21
2023-07-18T13:15:12.592Z,29.24
2023-07-18T13:18:15.511Z,29.04
2023-07-18T13:21:18.673Z,28.36
2023-07-18T13:24:22.125Z,28.24
2023-07-18T13:27:26.748Z,29.03
2023-07-18T13:30:30.615Z,28.80
2023-07-18T13:33:33.843Z,28.42
2023-07-18T13:36:39.273Z,28.23
2023-07-18T13:39:42.818Z,29.24
2023-07-18T13:42:46.104Z,28.83
2023-07-18T13:45:50.778Z,27.87
2023-07-18T13:48:55.634Z,28.62
2023-07-18T13:51:59.658Z,28.43
2023-07-18T13:55:03.799Z,27.89
2023-07-18T13:58:07.229Z,28.34
2023-07-18T14:01:11.166Z,27.51
2023-07-18T14:04:18.244Z,27.69
2023-07-18T14:07:21.787Z,28.91
2023-07-18T14:10:25.844Z,28.35
2023-07-18T14:13:29.313Z,27.70
2023-07-18T14:16:32.780Z,27.63
2023-07-18T14:19:35.934Z,27.46
2023-07-18T14:22:41.717Z,27.24
2023-07-18T14:25:51.217Z,28.15
2023-07-18T14:28:56.479Z,27.27
2023-07-18T14:31:59.965Z,28.15
2023-07-18T14:35:03.077Z,28.05
2023-07-18T14:38:06.295Z,28.25
2023-07-18T14:41:16.930Z,27.61
2023-07-18T14:44:23.636Z,28.31
2023-07-18T14:47:31.209Z,27.54
2023-07-18T14:50:40.937Z,27.87
2023-07-18T14:53:45.916Z,28.43
2023-07-18T14:56:54.450Z,28.62
2023-07-18T14:59:59.298Z,28.31
2023-07-18T15:03:04.708Z,27.81
2023-07-18T15:06:09.016Z,28.68
2023-07-18T15:09:13.952Z,28.28
2023-07-18T15:12:17.573Z,28.78
2023-07-18T15:15:21.629Z,27.93
2023-07-18T15:18:28.089Z,27.65
2023-07-18T15:21:32.121Z,28.08
2023-07-18T15:24:36.290Z,28.18
2023-07-18T15:27:41.651Z,28.36
2023-07-18T15:30:44.943Z,28.07
2023-07-18T15:33:48.323Z,27.72
2023-07-18T15:36:51.717Z,28.20
2023-07-18T15:39:56.816Z,27.89
2023-07-18T15:43:00.457Z,28.17
2023-07-18T15:46:05.189Z,28.36
2023-07-18T15:49:08.113Z,27.95
2023-07-18T15:52:11.054Z,28.35
2023-07-18T15:55:17.502Z,28.08
2023-07-18T15:58:20.363Z,28.02
2023-07-18T16:01:25.133Z,28.33
2023-07-18T16:04:28.388Z,28.01
2023-07-18T16:07:31.534Z,28.33
2023-07-18T16:10:34.445Z,28.79
2023-07-18T16:13:37.821Z,29.00
2023-07-18T16:16:41.672Z,28.45
2023-07-18T16:19:45.739Z,29.21
2023-07-18T16:22:50.863Z,29.04
2023-07-18T16:25:54.326Z,29.45
2023-07-18T16:28:57.562Z,29.60
2023-07-18T16:32:01.588Z,30.12
2023-07-18T16:35:05.882Z,30.82
2023-07-18T16:38:09.122Z,31.49
2023-07-18T16:41:12.230Z,33.37
2023-07-18T16:44:18.671Z,35.35
2023-07-18T16:47:24.782Z,35.97
2023-07-18T16:50:28.049Z,36.51
2023-07-18T16:53:31.137Z,36.92
2023-07-18T16:56:36.530Z,37.24
2023-07-18T16:59:39.935Z,38.21
2023-07-18T17:02:43.125Z,38.64
2023-07-18T17:05:46.220Z,39.02
2023-07-18T17:08:49.102Z,39.59
2023-07-18T17:11:53.556Z,39.92
2023-07-18T17:14:58.551Z,39.64
2023-07-18T17:18:01.559Z,39.55
2023-07-18T17:21:06.381Z,40.13
2023-07-18T17:24:10.189Z,40.68
2023-07-18T17:27:14.803Z,40.97
2023-07-18T17:30:21.157Z,41.09
2023-07-18T17:33:27.012Z,41.02
2023-07-18T17:36:30.427Z,42.51
2023-07-18T17:39:33.645Z,41.51
2023-07-18T17:42:36.599Z,40.27
2023-07-18T17:45:39.902Z,40.62
2023-07-18T17:48:43.462Z,40.53
2023-07-18T17:51:47.380Z,40.55
2023-07-18T17:54:51.249Z,41.23
2023-07-18T17:57:55.088Z,41.13
2023-07-18T18:00:58.216Z,41.73
2023-07-18T18:04:02.199Z,42.34
2023-07-18T18:07:06.173Z,43.09
2023-07-18T18:10:09.658Z,43.42
2023-07-18T18:13:14.601Z,43.94
2023-07-18T18:16:18.714Z,43.04
2023-07-18T18:19:23.788Z,44.63
2023-07-18T18:22:26.952Z,45.61
2023-07-18T18:25:30.488Z,45.88
2023-07-18T18:28:33.822Z,45.82
2023-07-18T18:31:37.158Z,45.76
2023-07-18T18:34:50.136Z,46.11
2023-07-18T18:38:04.211Z,45.96
2023-07-18T18:41:07.324Z,45.20
2023-07-18T18:44:10.691Z,45.28
2023-07-18T18:47:14.009Z,45.69
2023-07-18T18:50:22.311Z,45.24
2023-07-18T18:53:27.439Z,45.82
2023-07-18T18:56:30.836Z,45.97
2023-07-18T18:59:34.255Z,46.28
2023-07-18T19:02:39.337Z,46.64
2023-07-18T19:05:42.513Z,47.17
2023-07-18T19:08:47.986Z,47.87
2023-07-18T19:11:51.906Z,48.39
2023-07-18T19:14:58.034Z,48.22
2023-07-18T19:18:02.516Z,48.58
2023-07-18T19:21:07.062Z,48.75
2023-07-18T19:24:12.671Z,49.19
2023-07-18T19:27:15.977Z,49.73
2023-07-18T19:30:19.031Z,48.87
2023-07-18T19:33:21.883Z,49.37
2023-07-18T19:36:25.246Z,49.43
2023-07-18T19:39:28.309Z,50.05
2023-07-18T19:42:31.262Z,49.79
2023-07-18T19:45:34.314Z,49.25
2023-07-18T19:48:37.734Z,49.34
2023-07-18T19:51:41.557Z,50.31
2023-07-18T19:54:44.739Z,50.21
2023-07-18T19:57:49.457Z,50.16
2023-07-18T20:00:52.432Z,49.84
2023-07-18T20:03:59.873Z,49.76
2023-07-18T20:07:03.440Z,50.33
2023-07-18T20:10:07.144Z,49.77
2023-07-18T20:13:10.612Z,49.66
2023-07-18T20:16:13.555Z,49.67
2023-07-18T20:19:17.421Z,49.56
2023-07-18T20:22:24.159Z,49.61
2023-07-18T20:25:27.257Z,49.69
2023-07-18T20:28:31.404Z,50.15
2023-07-18T20:31:35.005Z,50.02
2023-07-18T20:34:39.443Z,50.07
2023-07-18T20:37:42.951Z,49.85
2023-07-18T20:40:46.617Z,49.93
2023-07-18T20:43:49.789Z,50.45
2023-07-18T20:46:53.071Z,50.16
2023-07-18T20:49:57.167Z,50.20
2023-07-18T20:53:00.266Z,50.23
2023-07-18T20:56:03.312Z,51.46
2023-07-18T20:59:07.224Z,51.86
2023-07-18T21:02:10.363Z,52.27
2023-07-18T21:05:13.417Z,52.38
2023-07-18T21:08:16.388Z,51.97
2023-07-18T21:11:20.228Z,52.21
2023-07-18T21:14:24.784Z,52.94
2023-07-18T21:17:27.828Z,53.53
2023-07-18T21:20:30.852Z,52.39
2023-07-18T21:23:34.003Z,53.15
2023-07-18T21:26:36.999Z,52.58
2023-07-18T21:29:39.983Z,53.23
2023-07-18T21:32:43.369Z,53.65
2023-07-18T21:35:47.173Z,53.27
2023-07-18T21:38:50.251Z,52.59
2023-07-18T21:41:53.447Z,52.51
2023-07-18T21:44:57.520Z,52.14
2023-07-18T21:48:00.693Z,52.26
2023-07-18T21:51:05.299Z,52.59
2023-07-18T21:54:11.453Z,52.50
2023-07-18T21:57:15.525Z,51.77
2023-07-18T22:00:19.804Z,52.18
2023-07-18T22:03:22.966Z,52.42
2023-07-18T22:06:26.500Z,52.60
2023-07-18T22:09:29.755Z,52.36
2023-07-18T22:12:32.892Z,52.52
2023-07-18T22:15:36.011Z,52.84
2023-07-18T22:18:39.441Z,53.12
2023-07-18T22:21:42.499Z,53.83
2023-07-18T22:24:45.471Z,53.59
2023-07-18T22:27:48.726Z,53.73
2023-07-18T22:30:52.301Z,54.16
2023-07-18T22:33:55.348Z,53.91
2023-07-18T22:36:58.484Z,54.19
2023-07-18T22:40:01.279Z,54.19
2023-07-18T22:43:05.682Z,54.34
2023-07-18T22:46:08.657Z,54.48
2023-07-18T22:49:11.948Z,55.18
2023-07-18T22:52:20.229Z,54.70
2023-07-18T22:55:23.458Z,55.17
2023-07-18T22:58:26.263Z,55.43
2023-07-18T23:01:29.503Z,56.03
2023-07-18T23:04:32.803Z,55.52
2023-07-18T23:07:36.925Z,55.60
2023-07-18T23:10:40.257Z,55.71
2023-07-18T23:13:43.016Z,55.43
2023-07-18T23:16:46.153Z,56.22
2023-07-18T23:19:50.238Z,56.04
2023-07-18T23:22:53.382Z,56.30
2023-07-18T23:25:56.387Z,56.40
2023-07-18T23:28:59.487Z,56.57
2023-07-18T23:32:02.586Z,56.72
2023-07-18T23:35:06.286Z,57.10
2023-07-18T23:38:09.591Z,57.07
2023-07-18T23:41:12.346Z,56.95
2023-07-18T23:44:15.586Z,57.26
2023-07-18T23:47:18.884Z,57.80
2023-07-18T23:50:22.098Z,57.62
2023-07-18T23:53:25.042Z,57.59
2023-07-18T23:56:28.067Z,58.20
2023-07-18T23:59:31.105Z,58.13
